• Join FlightAware (Why Join?)
  • Login
  • US Flag GB Flag 
18:11 EDT


 

Airport Tracker/Info


-or-


 

Live Flight TrackerFlight Track Log ✈ MKU517 ✈ 19-Mar-2012 ✈ PHJH / JHM - PHNL

Flight Track Log - Related Links

Times and Time Zones

All times are in EDT time to prevent confusion due to time zone crossing. See the MKU517 flight status page for this flight to view local times or setup timezone preferences in your user account.

Time Position Orientation Groundspeed Altitude Reporting Facility
EDT Latitude Longitude Course Direction KTS MPH feet Rate Location/Type
23:19 21.0000 -156.7333 270° West 180 207 4,900  Level Honolulu Center
23:20 21.0000 -156.7833 250° West 170 196 6,300 1,380 Climbing Honolulu Center
23:21 20.9833 -156.8333 250° West 180 207 7,700 840 Climbing Honolulu Center
23:22 20.9667 -156.8833 270° West 190 219 8,000 120 Climbing Honolulu Center
23:23 20.9667 -156.9500 255° West 220 253 8,000  Level Honolulu Center
23:24 20.9500 -157.0167 270° West 230 265 8,000  Level Honolulu Center
23:25 20.9500 -157.1000 255° West 230 265 8,000  Level Honolulu Center
23:26 20.9333 -157.1667 255° West 230 265 8,000  Level Honolulu Center
23:27 20.9167 -157.2333 270° West 230 265 8,000  Level Honolulu Center
23:28 20.9167 -157.3000 270° West 230 265 8,000 -120 Level Honolulu Center
23:29 20.9167 -157.3667 298° West 240 276 7,800 -360 Descending Honolulu Center
23:30 20.9500 -157.4333 298° West 250 288 7,300 -540 Descending Honolulu Center
23:31 20.9833 -157.5000 285° West 250 288 6,800 -540 Descending Honolulu Center
23:32 21.0000 -157.5667 293° West 250 288 6,300 -780 Descending Honolulu Center
23:33 21.0333 -157.6500 285° West 250 288 5,300 -1,020 Descending Honolulu Center
23:34 21.0500 -157.7167 298° West 240 276 4,300 -1,020 Descending Honolulu Center
23:35 21.0833 -157.7833 285° West 240 276 3,300 -1,020 Descending Honolulu Center
23:36 21.1000 -157.8500 328° Northwest 240 276 2,300 -900 Descending Honolulu Center
23:37 21.1500 -157.8833 328° Northwest 220 253 1,500 -420 Descending Honolulu Center
23:38 21.2000 -157.9167 343° North 180 207 1,500 -60 Level Honolulu Center
23:39 21.2500 -157.9333 335° Northwest 160 184 1,400 -300 Descending Honolulu Center
23:40 21.2833 -157.9500 335° Northwest 130 150 900 -540 Descending Honolulu Center